Time;durP1;ratioP1;P1;durP2;ratioP2;P2;SDS_P1;SDS_P2;PMS_P1;PMS_P2;Temp;Humidity;BMP_temperature;BMP_pressure;BME280_temperature;BME280_humidity;BME280_pressure;Samples;Min_cycle;Max_cycle;Signal;HPM_P1;HPM_P2
2023/05/27 00:00:46;;;;;;;6.20;5.20;;;;;;;24.48;61.20;101255.41;5073266;28;20048;-54
2023/05/27 00:03:14;;;;;;;6.53;5.20;;;;;;;24.49;61.22;101258.97;5073196;28;20041;-54
2023/05/27 00:05:41;;;;;;;5.90;5.00;;;;;;;24.48;61.22;101252.72;5073192;28;20044;-58
2023/05/27 00:08:08;;;;;;;7.55;5.82;;;;;;;24.47;60.82;101253.72;5073366;28;20644;-59
2023/05/27 00:10:36;;;;;;;6.00;5.40;;;;;;;24.48;61.21;101251.88;5073199;28;20048;-58
2023/05/27 00:13:03;;;;;;;6.18;4.88;;;;;;;24.48;60.93;101262.69;5073082;28;20072;-59
2023/05/27 00:15:30;;;;;;;5.97;5.25;;;;;;;24.48;60.83;101265.41;5072854;28;20053;-59
2023/05/27 00:18:02;;;;;;;6.15;5.28;;;;;;;24.47;61.02;101267.25;5073102;28;20044;-59
2023/05/27 00:20:30;;;;;;;9.30;5.95;;;;;;;24.47;61.21;101266.38;5073310;28;20048;-54
2023/05/27 00:23:01;;;;;;;6.35;5.28;;;;;;;24.47;60.82;101272.66;5073157;28;20067;-54
2023/05/27 00:25:29;;;;;;;6.38;5.22;;;;;;;24.47;61.04;101271.78;5073024;28;20111;-54
2023/05/27 00:27:56;;;;;;;5.93;5.32;;;;;;;24.47;60.89;101261.84;5073102;28;20045;-55
2023/05/27 00:30:23;;;;;;;6.80;4.90;;;;;;;24.47;61.09;101258.25;5072162;28;20055;-54
2023/05/27 00:32:51;;;;;;;5.93;5.35;;;;;;;24.48;61.25;101257.28;5073095;28;20488;-52
2023/05/27 00:35:18;;;;;;;6.30;5.40;;;;;;;24.46;60.91;101259.28;5071886;28;20064;-55
2023/05/27 00:37:46;;;;;;;6.55;5.38;;;;;;;24.46;60.99;101260.13;5073192;28;20409;-53
2023/05/27 00:40:15;;;;;;;5.68;5.00;;;;;;;24.47;61.21;101260.97;5073015;28;20044;-58
2023/05/27 00:42:42;;;;;;;5.43;4.90;;;;;;;24.45;60.95;101263.84;5072897;28;20056;-58
2023/05/27 00:45:10;;;;;;;8.95;5.63;;;;;;;24.46;60.94;101257.41;5071912;28;20056;-54
2023/05/27 00:47:38;;;;;;;6.68;5.72;;;;;;;24.45;61.41;101260.28;5072947;28;20040;-53
2023/05/27 00:50:07;;;;;;;9.25;5.13;;;;;;;24.46;61.04;101257.41;5072827;28;20044;-53
2023/05/27 00:52:35;;;;;;;7.97;5.50;;;;;;;24.45;60.99;101249.47;5072747;28;20044;-55
2023/05/27 00:55:03;;;;;;;6.75;5.32;;;;;;;24.45;61.06;101244.91;5071589;28;20063;-53
2023/05/27 00:57:31;;;;;;;6.75;5.45;;;;;;;24.45;60.98;101247.59;5073327;28;20056;-54
2023/05/27 00:59:59;;;;;;;6.43;5.75;;;;;;;24.45;60.95;101250.31;5076183;28;20048;-58
2023/05/27 01:02:26;;;;;;;7.80;5.30;;;;;;;24.45;61.31;101246.75;5076211;28;20048;-53
2023/05/27 01:04:54;;;;;;;6.93;5.47;;;;;;;24.44;60.82;101245.91;5076243;28;20045;-54
2023/05/27 01:07:37;;;;;;;6.82;5.60;;;;;;;24.45;60.99;101247.59;5075012;28;20056;-54
2023/05/27 01:10:20;;;;;;;7.50;5.90;;;;;;;24.44;61.02;101243.19;5076234;28;20380;-52
2023/05/27 01:12:57;;;;;;;;;;;;;;;24.42;61.22;101243.34;5076515;28;20048;-55
2023/05/27 01:15:25;;;;;;;7.45;5.28;;;;;;;24.43;61.17;101249.63;5075668;28;19920;-54
2023/05/27 01:17:56;;;;;;;7.18;4.95;;;;;;;24.45;61.61;101253.00;5075851;28;20045;-55
2023/05/27 01:20:25;;;;;;;7.05;5.50;;;;;;;24.44;61.32;101239.66;5074699;28;20048;-55
2023/05/27 01:22:53;;;;;;;5.63;4.95;;;;;;;24.44;61.38;101240.50;5075881;28;20053;-54
2023/05/27 01:25:21;;;;;;;6.10;5.43;;;;;;;24.44;61.32;101254.03;5075700;28;20044;-54
2023/05/27 01:27:48;;;;;;;6.43;5.40;;;;;;;24.44;61.51;101251.31;5074770;28;20503;-55
2023/05/27 01:30:16;;;;;;;6.47;5.82;;;;;;;24.44;61.23;101248.63;5075016;28;20044;-54
2023/05/27 01:32:48;;;;;;;6.88;5.78;;;;;;;24.45;61.28;101246.75;5075945;28;20052;-54
2023/05/27 01:35:27;;;;;;;6.90;5.03;;;;;;;24.44;61.47;101267.56;5074305;28;20071;-53
2023/05/27 01:37:56;;;;;;;7.00;5.85;;;;;;;24.43;61.13;101292.94;5075609;28;20049;-54
2023/05/27 01:40:28;;;;;;;7.50;6.15;;;;;;;24.44;61.25;101329.81;5075742;28;20063;-58
2023/05/27 01:42:57;;;;;;;6.43;5.80;;;;;;;24.45;61.43;101336.06;5074330;28;20059;-58
2023/05/27 01:45:25;;;;;;;10.20;6.00;;;;;;;24.44;61.35;101337.94;5074387;28;20123;-58
2023/05/27 01:47:53;;;;;;;7.70;5.85;;;;;;;24.45;61.06;101336.91;5075593;28;20052;-59
2023/05/27 01:50:21;;;;;;;6.45;5.18;;;;;;;24.44;61.33;101329.81;5075139;28;20483;-58
2023/05/27 01:52:49;;;;;;;6.75;5.28;;;;;;;24.44;61.19;101318.97;5074245;28;20523;-53
2023/05/27 01:55:17;;;;;;;6.97;5.20;;;;;;;24.44;61.12;101332.50;5074330;28;20044;-54
2023/05/27 01:57:45;;;;;;;6.80;5.07;;;;;;;24.42;61.29;101335.34;5075459;28;20044;-54
2023/05/27 02:00:15;;;;;;;7.32;5.20;;;;;;;24.43;61.08;101333.53;5074132;28;20055;-54
2023/05/27 02:02:42;;;;;;;5.88;5.05;;;;;;;24.44;61.29;101332.50;5075414;28;20472;-55
2023/05/27 02:05:13;;;;;;;8.38;5.55;;;;;;;24.45;61.37;101326.09;5075351;28;20036;-52
2023/05/27 02:07:40;;;;;;;8.50;4.95;;;;;;;24.46;61.83;101325.06;5074146;28;20056;-54
2023/05/27 02:10:08;;;;;;;6.25;5.65;;;;;;;24.46;61.67;101325.06;5074578;28;20044;-54
2023/05/27 02:12:36;;;;;;;7.55;5.18;;;;;;;24.46;61.52;101335.06;5073789;28;20048;-54
2023/05/27 02:15:04;;;;;;;8.00;5.43;;;;;;;24.47;61.88;101334.91;5075404;28;20045;-55
2023/05/27 02:17:32;;;;;;;7.70;5.32;;;;;;;24.47;61.73;101331.34;5074011;28;20052;-52
2023/05/27 02:19:59;;;;;;;5.68;5.07;;;;;;;24.46;61.78;101327.78;5073005;28;20044;-58
2023/05/27 02:22:27;;;;;;;6.70;6.00;;;;;;;24.46;61.58;101335.06;5073498;28;20395;-59
2023/05/27 02:24:54;;;;;;;6.90;4.95;;;;;;;24.45;61.88;101328.78;5074840;28;20040;-58
2023/05/27 02:27:22;;;;;;;6.35;5.32;;;;;;;24.45;61.49;101326.09;5073832;28;20053;-58
2023/05/27 02:29:49;;;;;;;6.53;5.47;;;;;;;24.46;61.90;101318.81;5074912;28;20055;-56
2023/05/27 02:32:17;;;;;;;6.95;5.50;;;;;;;24.44;61.85;101321.69;5073339;28;20059;-58
2023/05/27 02:34:44;;;;;;;6.68;5.20;;;;;;;24.45;61.61;101319.81;5073552;28;20495;-59
2023/05/27 02:37:12;;;;;;;5.70;4.53;;;;;;;24.44;61.55;101329.81;5073432;28;20400;-58
2023/05/27 02:39:40;;;;;;;7.75;5.43;;;;;;;24.43;61.60;101322.69;5074681;28;20072;-59
2023/05/27 02:42:08;;;;;;;6.03;5.25;;;;;;;24.43;61.86;101320.00;5074817;28;20051;-53
2023/05/27 02:44:35;;;;;;;6.18;4.97;;;;;;;24.44;61.82;101328.97;5074011;28;20056;-54
2023/05/27 02:47:03;;;;;;;5.50;5.00;;;;;;;24.42;61.90;101321.81;5073923;28;20047;-54
2023/05/27 02:49:30;;;;;;;5.82;5.10;;;;;;;24.43;61.64;101317.28;5073914;28;20056;-53
2023/05/27 02:51:57;;;;;;;7.55;5.03;;;;;;;24.42;61.70;101326.38;5074060;28;20049;-54
2023/05/27 02:54:25;;;;;;;5.93;5.10;;;;;;;24.42;61.83;101323.69;5072683;28;20098;-54
2023/05/27 02:56:52;;;;;;;6.15;4.85;;;;;;;24.42;61.51;101332.66;5074037;28;20059;-54
2023/05/27 02:59:19;;;;;;;5.97;4.72;;;;;;;24.41;61.57;101338.22;5074308;28;20044;-54
2023/05/27 03:01:47;;;;;;;5.57;4.55;;;;;;;24.41;61.55;101336.38;5072990;28;20127;-54
2023/05/27 03:04:16;;;;;;;5.25;4.43;;;;;;;24.41;61.33;101336.38;5074029;28;20047;-54
2023/05/27 03:06:43;;;;;;;6.80;4.70;;;;;;;24.41;61.49;101333.66;5072993;28;20052;-53
2023/05/27 03:09:11;;;;;;;5.00;4.50;;;;;;;24.40;61.22;101336.53;5072689;28;20056;-54
2023/05/27 03:11:38;;;;;;;5.05;4.45;;;;;;;24.41;61.25;101341.78;5074303;28;20084;-55
2023/05/27 03:14:05;;;;;;;6.07;5.10;;;;;;;24.42;61.29;101337.22;5072906;28;20045;-54
2023/05/27 03:16:34;;;;;;;7.03;4.60;;;;;;;24.40;61.43;101331.97;5073896;28;20044;-54
2023/05/27 03:19:03;;;;;;;5.93;4.78;;;;;;;24.41;60.85;101332.81;5072791;28;20059;-54
2023/05/27 03:21:31;;;;;;;5.43;3.90;;;;;;;24.40;61.05;101331.97;5071483;28;20419;-58
2023/05/27 03:23:59;;;;;;;7.25;5.15;;;;;;;24.40;61.47;101326.56;5073202;28;20419;-58
2023/05/27 03:26:28;;;;;;;5.57;4.80;;;;;;;24.40;61.44;101336.53;5072514;28;20114;-58
2023/05/27 03:28:56;;;;;;;6.57;5.22;;;;;;;24.39;61.01;101332.97;5072703;28;20060;-58
2023/05/27 03:31:24;;;;;;;6.22;4.47;;;;;;;24.40;61.15;101340.09;5072810;28;20064;-54
2023/05/27 03:34:00;;;;;;;6.30;4.45;;;;;;;24.40;61.41;101347.34;5072600;28;20053;-55
2023/05/27 03:36:28;;;;;;;5.10;4.60;;;;;;;24.40;61.39;101350.06;5072162;28;20127;-54
2023/05/27 03:38:56;;;;;;;5.60;5.00;;;;;;;24.40;61.29;101358.19;5072927;28;20048;-53
2023/05/27 03:41:25;;;;;;;4.63;4.13;;;;;;;24.39;61.23;101351.06;5072346;28;20048;-58
2023/05/27 03:43:54;;;;;;;5.40;4.22;;;;;;;24.39;61.12;101351.06;5072554;28;20052;-59
2023/05/27 03:46:22;;;;;;;4.90;4.15;;;;;;;24.39;61.02;101359.19;5072311;28;20056;-58
2023/05/27 03:48:50;;;;;;;5.15;4.25;;;;;;;24.38;60.87;101366.44;5072412;28;20512;-58
2023/05/27 03:51:17;;;;;;;4.82;4.25;;;;;;;24.39;61.13;101378.13;5073557;28;20051;-58
2023/05/27 03:53:45;;;;;;;5.60;4.53;;;;;;;24.39;61.34;101388.97;5072570;28;20396;-58
2023/05/27 03:56:12;;;;;;;4.65;4.00;;;;;;;24.39;61.44;101397.06;5072464;28;20075;-58
2023/05/27 03:58:40;;;;;;;5.72;4.28;;;;;;;24.39;61.04;101407.91;5074055;28;20048;-59
2023/05/27 04:01:08;;;;;;;5.50;4.07;;;;;;;24.39;60.93;101407.91;5072174;28;20060;-58
2023/05/27 04:03:37;;;;;;;6.90;4.72;;;;;;;24.39;61.06;101411.47;5072026;28;20049;-58
2023/05/27 04:06:05;;;;;;;5.82;4.43;;;;;;;24.39;60.95;101426.84;5071912;28;20041;-58
2023/05/27 04:08:33;;;;;;;4.85;3.95;;;;;;;24.39;61.29;101433.09;5072022;28;20499;-58
2023/05/27 04:11:00;;;;;;;6.10;4.07;;;;;;;24.39;61.15;101441.22;5071966;28;20056;-54
2023/05/27 04:13:27;;;;;;;8.77;5.18;;;;;;;24.40;60.93;101455.59;5072171;28;20057;-53
2023/05/27 04:15:56;;;;;;;4.80;3.95;;;;;;;24.39;61.12;101457.47;5071644;28;20056;-54
2023/05/27 04:18:24;;;;;;;4.30;3.80;;;;;;;24.40;61.17;101452.91;5072867;28;20049;-54
2023/05/27 04:20:52;;;;;;;5.30;3.95;;;;;;;24.39;60.72;101456.63;5073218;28;20056;-58
2023/05/27 04:23:20;;;;;;;5.78;3.85;;;;;;;24.39;60.92;101459.31;5071860;28;20048;-58
2023/05/27 04:25:49;;;;;;;5.13;4.63;;;;;;;24.38;60.86;101455.75;5071482;28;20052;-58
2023/05/27 04:28:20;;;;;;;4.75;3.95;;;;;;;24.39;60.69;101460.16;5071820;28;20067;-58
2023/05/27 04:30:48;;;;;;;4.82;4.10;;;;;;;24.39;60.97;101462.03;5072176;28;20048;-59
2023/05/27 04:33:25;;;;;;;4.97;3.97;;;;;;;24.39;60.99;101464.72;5074359;28;20384;-58
2023/05/27 04:35:55;;;;;;;5.45;4.30;;;;;;;24.40;61.06;101458.31;5075736;28;20487;-58
2023/05/27 04:38:26;;;;;;;4.53;4.07;;;;;;;24.38;60.95;101452.19;5076054;28;20053;-58
2023/05/27 04:41:01;;;;;;;4.15;3.65;;;;;;;24.38;61.09;101454.88;5075891;28;20059;-58
2023/05/27 04:43:52;;;;;;;4.65;4.05;;;;;;;24.38;61.11;101463.00;5076658;28;20119;-59
2023/05/27 04:46:24;;;;;;;4.85;4.35;;;;;;;24.39;60.93;101456.63;5075518;28;20055;-58
2023/05/27 04:48:53;;;;;;;4.57;3.70;;;;;;;24.37;60.82;101463.97;5077185;28;20067;-58
2023/05/27 04:51:20;;;;;;;4.57;4.07;;;;;;;24.37;61.06;101470.25;5075485;28;20044;-58
2023/05/27 04:53:48;;;;;;;4.75;4.25;;;;;;;24.38;61.00;101463.84;5076418;28;20377;-59
2023/05/27 04:56:18;;;;;;;5.53;4.47;;;;;;;24.38;60.93;101465.72;5075089;28;20053;-58
2023/05/27 04:58:46;;;;;;;4.20;3.80;;;;;;;24.38;60.93;101473.84;5075149;28;20499;-58
2023/05/27 05:01:20;;;;;;;4.68;3.92;;;;;;;24.37;60.87;101472.09;5074704;28;20056;-58
2023/05/27 05:04:12;;;;;;;5.05;4.38;;;;;;;24.38;60.95;101479.25;5075286;28;20053;-59
2023/05/27 05:06:50;;;;;;;4.43;3.70;;;;;;;24.37;61.28;101483.78;5074792;28;20063;-59
2023/05/27 05:09:18;;;;;;;5.50;4.00;;;;;;;24.38;60.81;101487.38;5074977;28;20053;-58
2023/05/27 05:11:46;;;;;;;5.38;4.05;;;;;;;24.39;61.06;101483.69;5075105;28;20053;-54
2023/05/27 05:14:14;;;;;;;5.72;3.95;;;;;;;24.37;61.21;101482.94;5076292;28;20150;-54
2023/05/27 05:16:41;;;;;;;4.28;3.75;;;;;;;24.38;60.93;101487.38;5075197;28;20048;-55
2023/05/27 05:19:09;;;;;;;5.15;3.53;;;;;;;24.38;61.23;101495.47;5075441;28;20064;-54
2023/05/27 05:21:38;;;;;;;6.13;4.03;;;;;;;24.38;61.37;101485.50;5075043;28;20049;-54
2023/05/27 05:24:09;;;;;;;7.22;3.80;;;;;;;24.37;61.36;101494.59;5074671;28;20051;-53
2023/05/27 05:26:40;;;;;;;5.35;4.32;;;;;;;24.39;61.38;101491.78;5074795;28;20387;-55
2023/05/27 05:29:07;;;;;;;4.28;3.50;;;;;;;24.38;61.33;101509.00;5074522;28;20542;-55
2023/05/27 05:31:34;;;;;;;4.25;3.53;;;;;;;24.38;61.18;101506.31;5074739;28;20064;-58
2023/05/27 05:34:02;;;;;;;4.32;3.67;;;;;;;24.37;61.21;101502.72;5074321;28;20059;-54
2023/05/27 05:36:33;;;;;;;4.85;4.20;;;;;;;24.38;61.36;101507.16;5074358;28;20044;-54
2023/05/27 05:39:05;;;;;;;5.30;4.00;;;;;;;24.38;61.37;101495.47;5074442;28;20048;-54
2023/05/27 05:41:35;;;;;;;4.50;4.10;;;;;;;24.38;61.47;101495.47;5074418;28;20285;-58
2023/05/27 05:44:03;;;;;;;4.65;3.45;;;;;;;24.38;61.39;101490.06;5072893;28;20053;-58
2023/05/27 05:46:30;;;;;;;5.82;4.20;;;;;;;24.38;61.38;101487.38;5074133;28;20053;-58
2023/05/27 05:48:58;;;;;;;5.88;4.07;;;;;;;24.38;61.50;101490.06;5073663;28;20055;-58
2023/05/27 05:51:35;;;;;;;4.40;3.70;;;;;;;24.38;61.29;101487.38;5059420;28;20055;-58
2023/05/27 05:54:02;;;;;;;5.28;4.50;;;;;;;24.37;61.50;101491.03;5074145;28;20067;-58
2023/05/27 05:56:33;;;;;;;5.55;4.25;;;;;;;24.38;61.36;101495.47;5074055;28;20045;-59
2023/05/27 05:59:00;;;;;;;6.05;4.07;;;;;;;24.38;61.37;101492.78;5074017;28;20384;-59
2023/05/27 06:01:31;;;;;;;4.15;3.60;;;;;;;24.38;61.44;101481.94;5074470;28;20052;-58
2023/05/27 06:04:03;;;;;;;4.93;3.90;;;;;;;24.37;61.46;101477.50;5074374;28;20056;-56
2023/05/27 06:06:37;;;;;;;4.35;3.72;;;;;;;24.34;60.94;101459.72;5074296;28;20048;-56
2023/05/27 06:09:25;;;;;;;5.38;3.53;;;;;;;24.31;60.94;101461.91;5074587;28;20056;-56
2023/05/27 06:11:55;;;;;;;4.18;3.67;;;;;;;24.25;61.01;101463.31;5075551;28;20068;-58
2023/05/27 06:14:24;;;;;;;5.22;4.53;;;;;;;24.21;61.34;101459.22;5073931;28;20057;-58
2023/05/27 06:16:55;;;;;;;4.85;3.42;;;;;;;24.17;61.42;101458.66;5073765;28;20066;-58
2023/05/27 06:19:22;;;;;;;6.32;4.15;;;;;;;24.13;61.61;101446.41;5075182;28;20093;-52
2023/05/27 06:21:50;;;;;;;5.38;4.07;;;;;;;24.14;61.51;101439.16;5074198;28;20373;-53
2023/05/27 06:24:19;;;;;;;5.60;4.40;;;;;;;24.15;61.68;101432.78;5075055;28;20388;-53
2023/05/27 06:26:52;;;;;;;7.70;4.20;;;;;;;24.17;61.73;101428.91;5073712;28;20051;-53
2023/05/27 06:29:19;;;;;;;5.90;3.97;;;;;;;24.19;61.70;101426.06;5074807;28;20049;-53
2023/05/27 06:31:48;;;;;;;4.35;3.83;;;;;;;24.21;61.79;101421.34;5073701;28;20052;-58
2023/05/27 06:34:16;;;;;;;7.00;4.47;;;;;;;24.23;61.63;101418.50;5073546;28;20388;-58
2023/05/27 06:36:44;;;;;;;6.35;4.40;;;;;;;24.25;61.89;101411.06;5073084;28;20053;-53
2023/05/27 06:39:12;;;;;;;4.50;3.78;;;;;;;24.26;61.90;101413.59;5073429;28;20049;-54
2023/05/27 06:41:41;;;;;;;4.70;4.22;;;;;;;24.28;61.77;101421.59;5074078;28;20056;-58
2023/05/27 06:44:43;;;;;;;5.68;4.00;;;;;;;24.28;61.56;101419.75;5073945;28;20056;-58
2023/05/27 06:47:23;;;;;;;4.32;3.78;;;;;;;24.29;61.56;101421.44;5073261;28;20052;-58
2023/05/27 06:49:50;;;;;;;4.93;4.07;;;;;;;24.30;61.81;101408.75;5073529;28;20495;-54
2023/05/27 06:52:18;;;;;;;6.85;4.70;;;;;;;24.31;61.94;101405.91;5074631;28;20384;-53
2023/05/27 06:55:04;;;;;;;6.03;4.68;;;;;;;24.32;61.47;101420.28;5072895;28;20388;-51
2023/05/27 06:57:50;;;;;;;5.75;4.40;;;;;;;24.33;61.71;101422.00;5081067;28;20055;-51
2023/05/27 07:00:24;;;;;;;9.18;5.53;;;;;;;24.32;61.40;101423.84;5073149;28;20049;-58
2023/05/27 07:03:14;;;;;;;6.03;4.18;;;;;;;24.34;61.45;101426.38;5074293;28;20055;-59
2023/05/27 07:05:42;;;;;;;5.35;4.15;;;;;;;24.33;61.86;101427.41;5072806;28;20041;-59
2023/05/27 07:08:10;;;;;;;4.25;3.58;;;;;;;24.34;61.56;101437.22;5056409;28;20056;-58
2023/05/27 07:10:38;;;;;;;4.90;4.05;;;;;;;24.35;61.59;101430.81;5072764;28;20064;-53
2023/05/27 07:13:05;;;;;;;5.93;4.60;;;;;;;24.35;61.81;101426.25;5072711;28;20075;-53
2023/05/27 07:15:43;;;;;;;4.18;3.42;;;;;;;24.37;61.79;101423.38;5072678;28;20515;-54
2023/05/27 07:18:10;;;;;;;4.65;3.47;;;;;;;24.37;61.75;101426.09;5072997;28;20057;-54
2023/05/27 07:20:39;;;;;;;4.55;3.67;;;;;;;24.37;61.84;101423.38;5072855;28;20488;-58
2023/05/27 07:23:09;;;;;;;5.43;4.53;;;;;;;24.37;61.73;101426.94;5073016;28;20056;-59
2023/05/27 07:25:38;;;;;;;7.22;3.65;;;;;;;24.38;61.78;101430.53;5056759;28;20052;-58
2023/05/27 07:28:06;;;;;;;4.68;3.63;;;;;;;24.38;61.62;101436.78;5072838;28;20079;-59
2023/05/27 07:30:41;;;;;;;4.97;4.13;;;;;;;24.38;61.84;101435.94;5072895;28;20056;-58
2023/05/27 07:33:08;;;;;;;7.18;4.03;;;;;;;24.38;61.62;101436.78;5072813;28;20048;-58
2023/05/27 07:35:41;;;;;;;;;;;;;;;24.38;61.93;101446.78;5073038;28;20056;-58
2023/05/27 07:38:08;;;;;;;5.28;3.70;;;;;;;24.39;61.65;101440.38;5073680;28;20275;-59
2023/05/27 07:40:36;;;;;;;5.03;3.88;;;;;;;24.38;61.55;101431.38;5072551;28;20052;-58
2023/05/27 07:43:03;;;;;;;4.25;3.38;;;;;;;24.39;61.84;101435.81;5055526;28;20527;-59
2023/05/27 07:45:33;;;;;;;4.72;3.97;;;;;;;24.40;61.82;101439.38;5072603;28;20048;-59
2023/05/27 07:48:01;;;;;;;6.07;4.50;;;;;;;24.40;61.65;101429.38;5072519;28;20468;-59
2023/05/27 07:50:28;;;;;;;5.53;3.83;;;;;;;24.41;61.66;101430.25;5072682;28;20048;-53
2023/05/27 07:53:03;;;;;;;5.88;4.70;;;;;;;24.42;61.83;101426.53;5072172;28;20495;-55
2023/05/27 07:55:32;;;;;;;7.40;5.53;;;;;;;24.42;61.79;101429.22;5072305;28;20052;-53
2023/05/27 07:58:00;;;;;;;6.72;6.03;;;;;;;24.41;61.69;101428.38;5072493;28;20044;-53
2023/05/27 08:00:34;;;;;;;10.75;7.28;;;;;;;24.40;61.95;101425.84;5072472;28;20507;-58
2023/05/27 08:03:01;;;;;;;6.25;5.35;;;;;;;24.38;61.43;101425.97;5072229;28;20053;-58
2023/05/27 08:05:49;;;;;;;8.40;5.88;;;;;;;24.37;61.66;101426.09;5071952;28;20048;-59
2023/05/27 08:08:21;;;;;;;7.90;5.40;;;;;;;24.35;61.19;101430.81;5074298;28;20048;-58
2023/05/27 08:11:17;;;;;;;10.85;5.70;;;;;;;24.34;61.17;101418.28;5058275;28;20071;-58
2023/05/27 08:14:00;;;;;;;;;;;;;;;24.31;61.52;101424.00;5076581;28;20052;-59
2023/05/27 08:16:50;;;;;;;8.90;5.97;;;;;;;24.32;61.35;101425.72;5077272;28;19920;-59
2023/05/27 08:19:37;;;;;;;6.55;4.88;;;;;;;24.31;61.74;101418.59;5080226;28;20522;-59
2023/05/27 08:22:23;;;;;;;6.38;5.00;;;;;;;24.31;61.82;101419.44;5084525;28;20052;-58
2023/05/27 08:25:23;;;;;;;6.82;5.50;;;;;;;24.34;61.55;101426.38;5076168;28;20056;-58
2023/05/27 08:28:11;;;;;;;8.02;5.22;;;;;;;24.34;61.93;101418.28;5075569;28;20399;-59
2023/05/27 08:30:58;;;;;;;8.00;5.18;;;;;;;24.35;62.01;101412.72;5076737;28;20049;-58
2023/05/27 08:33:46;;;;;;;7.78;4.95;;;;;;;24.37;61.84;101413.41;5075703;28;20052;-58
2023/05/27 08:36:15;;;;;;;6.80;4.72;;;;;;;24.38;61.86;101411.59;5075866;28;20057;-58
2023/05/27 08:38:45;;;;;;;7.53;4.90;;;;;;;24.39;62.10;101405.19;5075607;28;20052;-57
2023/05/27 08:41:19;;;;;;;8.30;5.60;;;;;;;24.40;62.04;101404.19;5076518;28;20049;-56
2023/05/27 08:43:47;;;;;;;8.52;5.38;;;;;;;24.40;62.12;101404.19;5075859;28;20057;-56
2023/05/27 08:46:16;;;;;;;6.20;5.18;;;;;;;24.40;61.88;101399.63;5075653;28;20045;-56
2023/05/27 08:48:46;;;;;;;6.60;5.47;;;;;;;24.41;61.86;101397.75;5075378;28;20048;-55
2023/05/27 08:51:18;;;;;;;10.40;5.45;;;;;;;24.42;61.82;101403.00;5075626;28;20048;-55
2023/05/27 08:53:46;;;;;;;6.38;5.57;;;;;;;24.44;62.09;101404.75;5075291;28;20052;-55
2023/05/27 08:56:18;;;;;;;8.10;5.15;;;;;;;24.45;62.15;101399.16;5075529;28;20506;-55
2023/05/27 08:58:48;;;;;;;6.80;5.72;;;;;;;24.46;61.75;101397.31;5075635;28;20063;-55
2023/05/27 09:01:18;;;;;;;8.57;5.65;;;;;;;24.47;61.57;101399.00;5075215;28;20048;-57
2023/05/27 09:03:47;;;;;;;8.73;5.27;;;;;;;24.48;61.62;101408.84;5075236;28;20052;-57
2023/05/27 09:06:16;;;;;;;9.45;5.03;;;;;;;24.48;62.05;101398.88;5075176;28;20059;-56
2023/05/27 09:08:43;;;;;;;7.15;5.07;;;;;;;24.53;62.02;101401.13;5076183;28;20048;-56
2023/05/27 09:11:21;;;;;;;7.50;4.65;;;;;;;24.55;61.76;101394.56;5076522;28;20052;-49
2023/05/27 09:13:49;;;;;;;6.57;5.65;;;;;;;24.57;61.76;101388.97;5076567;28;20052;-49
2023/05/27 09:16:21;;;;;;;7.45;5.13;;;;;;;24.57;61.96;101395.22;5076282;28;20044;-48
2023/05/27 09:18:49;;;;;;;;;;;;;;;24.58;62.07;101405.06;5076534;28;20052;-48
2023/05/27 09:21:17;;;;;;;8.07;5.95;;;;;;;24.62;59.88;101400.19;5076263;28;19931;-55
2023/05/27 09:23:44;;;;;;;13.35;7.28;;;;;;;24.53;59.12;101393.84;5076087;28;20055;-56
2023/05/27 09:26:13;;;;;;;9.32;6.22;;;;;;;24.37;59.55;101391.75;5074908;28;20419;-56
2023/05/27 09:28:41;;;;;;;7.60;6.07;;;;;;;24.31;60.05;101392.38;5075944;28;20043;-56
2023/05/27 09:31:09;;;;;;;8.23;6.03;;;;;;;24.32;60.69;101398.66;5075635;28;20059;-48
2023/05/27 09:33:38;;;;;;;9.48;7.30;;;;;;;24.32;61.08;101391.38;5075788;28;20045;-56
2023/05/27 09:36:08;;;;;;;8.70;5.72;;;;;;;24.27;61.40;101385.56;5075445;28;20056;-51
2023/05/27 09:38:36;;;;;;;9.30;6.35;;;;;;;24.25;61.57;101392.13;5075729;28;20052;-49
2023/05/27 09:41:05;;;;;;;7.25;5.35;;;;;;;24.26;61.31;101391.13;5075692;28;20045;-58
2023/05/27 09:43:33;;;;;;;7.22;5.38;;;;;;;24.28;61.53;101391.84;5076238;28;20048;-58
2023/05/27 09:46:02;;;;;;;7.22;5.63;;;;;;;24.32;61.55;101385.13;5074825;28;20049;-58
2023/05/27 09:48:31;;;;;;;7.28;6.10;;;;;;;24.34;61.78;101391.22;5075561;28;20045;-58
2023/05/27 09:50:59;;;;;;;7.03;5.43;;;;;;;24.38;61.47;101389.94;5075542;28;20058;-48
2023/05/27 09:53:28;;;;;;;6.45;4.85;;;;;;;24.39;61.44;101380.84;5075408;28;20067;-48
2023/05/27 09:55:56;;;;;;;7.15;5.38;;;;;;;24.41;61.47;101376.13;5075102;28;20053;-51
2023/05/27 09:58:24;;;;;;;7.47;5.55;;;;;;;24.43;61.59;101379.53;5074819;28;20032;-49
2023/05/27 10:00:55;;;;;;;7.22;5.18;;;;;;;24.45;61.39;101371.25;5074891;28;20530;-48
2023/05/27 10:03:28;;;;;;;8.25;5.20;;;;;;;24.45;61.25;101366.69;5074718;28;20055;-49
2023/05/27 10:05:55;;;;;;;6.22;5.50;;;;;;;24.47;61.19;101371.94;5074479;28;20052;-49
2023/05/27 10:08:24;;;;;;;6.07;5.47;;;;;;;24.46;61.26;101371.09;5074553;28;20049;-50
2023/05/27 10:11:12;;;;;;;7.97;5.75;;;;;;;24.48;61.44;101370.94;5074820;28;20048;-50
2023/05/27 10:13:40;;;;;;;6.22;5.30;;;;;;;24.48;61.12;101365.53;5074557;28;20526;-50
2023/05/27 10:16:18;;;;;;;6.70;5.32;;;;;;;24.50;61.30;101368.94;5074492;28;20067;-53
2023/05/27 10:18:52;;;;;;;5.60;4.93;;;;;;;24.49;61.02;101359.97;5074419;28;20049;-50
2023/05/27 10:21:20;;;;;;;5.78;5.18;;;;;;;24.50;61.30;101353.53;5074422;28;20052;-50
2023/05/27 10:24:04;;;;;;;7.72;5.30;;;;;;;24.51;60.94;101365.22;5074373;28;20228;-51
2023/05/27 10:26:36;;;;;;;5.50;4.90;;;;;;;24.51;60.97;101349.84;5074298;28;20059;-48
2023/05/27 10:29:07;;;;;;;7.82;5.30;;;;;;;24.51;60.93;101347.13;5074203;28;20040;-49
2023/05/27 10:31:43;;;;;;;5.50;4.90;;;;;;;24.52;61.10;101353.41;5073745;28;20048;-58
2023/05/27 10:34:10;;;;;;;5.88;4.72;;;;;;;24.51;61.07;101355.25;5073927;28;20051;-58
2023/05/27 10:36:38;;;;;;;6.50;5.78;;;;;;;24.51;61.02;101347.13;5072940;28;20063;-58
2023/05/27 10:39:13;;;;;;;5.72;4.72;;;;;;;24.51;60.98;101349.84;5073992;28;20040;-58
2023/05/27 10:41:51;;;;;;;6.68;4.57;;;;;;;24.52;60.97;101339.88;5074245;28;20070;-58
2023/05/27 10:44:29;;;;;;;5.45;4.53;;;;;;;24.51;60.71;101347.13;5073977;28;20054;-58
2023/05/27 10:47:16;;;;;;;5.38;4.88;;;;;;;24.52;60.93;101332.59;5073935;28;20040;-58
2023/05/27 10:49:47;;;;;;;7.47;4.63;;;;;;;24.52;60.79;101332.59;5073714;28;20063;-58
2023/05/27 10:52:17;;;;;;;6.43;5.28;;;;;;;24.53;60.82;101330.72;5073775;28;20403;-50
2023/05/27 10:54:46;;;;;;;6.50;5.45;;;;;;;24.53;60.71;101336.16;5073812;28;20044;-51
2023/05/27 10:57:16;;;;;;;5.13;4.50;;;;;;;24.54;60.58;101332.44;5073694;28;20051;-50
2023/05/27 10:59:54;;;;;;;6.40;4.80;;;;;;;24.53;60.34;101326.16;5073760;28;20048;-49
2023/05/27 11:02:35;;;;;;;6.00;4.60;;;;;;;24.53;60.50;101322.63;5073521;28;20059;-58
2023/05/27 11:05:10;;;;;;;7.00;5.03;;;;;;;24.53;60.40;101317.19;5073521;28;20484;-58
2023/05/27 11:07:41;;;;;;;6.10;5.05;;;;;;;24.54;60.54;101313.47;5073356;28;20049;-58
2023/05/27 11:10:10;;;;;;;6.93;4.80;;;;;;;24.53;60.45;101314.50;5073711;28;20048;-58
2023/05/27 11:12:37;;;;;;;6.10;4.55;;;;;;;24.53;60.46;101309.94;5073362;28;20044;-58
2023/05/27 11:15:05;;;;;;;6.47;4.80;;;;;;;24.53;60.56;101300.97;5073325;28;20514;-58
2023/05/27 11:17:33;;;;;;;5.97;4.78;;;;;;;24.54;60.16;101300.78;5073079;28;20044;-58
2023/05/27 11:20:05;;;;;;;5.68;4.90;;;;;;;24.54;60.31;101305.34;5073301;28;20491;-50
2023/05/27 11:22:36;;;;;;;6.05;4.88;;;;;;;24.53;60.31;101299.09;5073337;28;20404;-58
2023/05/27 11:25:05;;;;;;;4.95;4.45;;;;;;;24.54;59.85;101305.34;5073256;28;20051;-58
2023/05/27 11:27:35;;;;;;;6.18;4.72;;;;;;;24.54;59.95;101299.94;5073127;28;20051;-58
2023/05/27 11:30:11;;;;;;;5.47;4.63;;;;;;;24.53;59.91;101293.69;5073224;28;20045;-58
2023/05/27 11:32:41;;;;;;;4.78;4.25;;;;;;;24.54;59.80;101289.97;5073030;28;20048;-58
2023/05/27 11:35:16;;;;;;;6.40;5.10;;;;;;;24.54;59.97;101284.56;5072878;28;20060;-58
2023/05/27 11:37:50;;;;;;;7.10;4.38;;;;;;;24.54;59.79;101283.72;5073094;28;20052;-58
2023/05/27 11:40:18;;;;;;;6.15;4.25;;;;;;;24.55;59.87;101286.28;5073122;28;20052;-58
2023/05/27 11:42:46;;;;;;;6.32;4.80;;;;;;;24.54;59.83;101286.41;5072150;28;20041;-58